Time;durP1;ratioP1;P1;durP2;ratioP2;P2;SDS_P1;SDS_P2;PMS_P1;PMS_P2;Temp;Humidity;BMP_temperature;BMP_pressure;BME280_temperature;BME280_humidity;BME280_pressure;Samples;Min_cycle;Max_cycle;Signal;HPM_P1;HPM_P2
2022/03/08 00:01:46;;;;;;;11.20;4.97;;;;;;;0.86;90.60;102050.44;5069164;28;20045;-81
2022/03/08 00:04:11;;;;;;;10.50;5.00;;;;;;;0.94;89.51;102055.69;5061939;28;20397;-81
2022/03/08 00:06:37;;;;;;;9.18;4.82;;;;;;;0.95;89.10;102049.38;5065562;28;20040;-81
2022/03/08 00:09:03;;;;;;;7.35;4.65;;;;;;;1.02;89.05;102041.13;5080378;28;20088;-82
2022/03/08 00:11:29;;;;;;;7.97;4.50;;;;;;;1.00;89.10;102044.78;5066739;28;20067;-81
2022/03/08 00:13:54;;;;;;;7.88;4.53;;;;;;;1.02;89.29;102054.63;5062960;28;20056;-81
2022/03/08 00:16:20;;;;;;;5.85;4.10;;;;;;;1.06;87.92;102039.25;5069339;28;20037;-81
2022/03/08 00:18:48;;;;;;;6.88;4.40;;;;;;;1.05;88.24;102040.16;5042804;28;20047;-80
2022/03/08 00:21:14;;;;;;;8.95;4.68;;;;;;;1.08;88.40;102045.50;5059407;28;20049;-82
2022/03/08 00:23:40;;;;;;;7.05;3.78;;;;;;;1.03;89.11;102039.31;5063184;28;20086;-80
2022/03/08 00:26:05;;;;;;;9.63;4.78;;;;;;;1.05;88.31;102045.56;5059002;28;20064;-80
2022/03/08 00:28:31;;;;;;;6.70;4.15;;;;;;;1.02;88.58;102045.66;5051536;28;20025;-81
2022/03/08 00:30:57;;;;;;;5.57;4.28;;;;;;;0.98;88.89;102047.50;5061732;28;20085;-80
2022/03/08 00:33:23;;;;;;;8.38;4.40;;;;;;;0.95;89.11;102041.28;5046172;28;20041;-80
2022/03/08 00:35:50;;;;;;;5.47;3.90;;;;;;;0.96;89.07;102043.06;5079411;28;20496;-79
2022/03/08 00:38:16;;;;;;;7.53;4.60;;;;;;;0.91;88.98;102040.47;5053332;28;20064;-80
2022/03/08 00:40:42;;;;;;;9.50;4.85;;;;;;;0.90;89.56;102038.66;5068477;28;20025;-80
2022/03/08 00:43:07;;;;;;;10.65;4.55;;;;;;;0.78;89.47;102026.31;5066839;28;20029;-80
2022/03/08 00:45:33;;;;;;;6.18;4.43;;;;;;;0.89;89.19;102035.09;5067085;28;20029;-80
2022/03/08 00:47:59;;;;;;;9.23;5.32;;;;;;;0.89;89.65;102045.88;5050722;28;20044;-80
2022/03/08 00:50:28;;;;;;;8.32;4.38;;;;;;;0.94;88.72;102042.22;5063661;28;20029;-80
2022/03/08 00:52:55;;;;;;;7.95;4.68;;;;;;;0.81;88.67;102031.66;5066773;28;20037;-81
2022/03/08 00:55:23;;;;;;;11.00;4.63;;;;;;;0.87;89.17;102052.22;5063213;28;20029;-83
2022/03/08 00:57:49;;;;;;;7.30;4.43;;;;;;;0.83;89.36;102050.50;5069032;28;20025;-80
2022/03/08 01:00:17;;;;;;;10.07;4.10;;;;;;;0.80;89.13;102046.03;5083677;28;20053;-79
2022/03/08 01:02:43;;;;;;;7.80;4.45;;;;;;;0.80;88.88;102034.38;5067934;28;20084;-80
2022/03/08 01:05:09;;;;;;;7.82;3.92;;;;;;;0.71;89.00;102032.78;5078656;28;20041;-81
2022/03/08 01:07:35;;;;;;;7.72;4.07;;;;;;;0.75;89.31;102047.94;5049768;28;20041;-81
2022/03/08 01:10:07;;;;;;;7.65;4.18;;;;;;;0.61;90.20;102032.06;5065945;28;20029;-81
2022/03/08 01:12:32;;;;;;;7.70;5.15;;;;;;;0.54;90.09;102028.59;5062856;28;20044;-81
2022/03/08 01:15:00;;;;;;;8.90;4.60;;;;;;;0.60;90.43;102041.03;5066359;28;20415;-81
2022/03/08 01:17:25;;;;;;;10.07;5.03;;;;;;;0.59;90.63;102047.38;5097152;28;20041;-81
2022/03/08 01:19:51;;;;;;;6.65;4.63;;;;;;;0.57;91.11;102054.56;5065807;28;20025;-81
2022/03/08 01:22:16;;;;;;;18.50;4.38;;;;;;;0.46;91.40;102041.31;5055041;28;20049;-80
2022/03/08 01:24:43;;;;;;;11.52;4.80;;;;;;;0.44;92.01;102034.16;5055884;28;20058;-82
2022/03/08 01:27:09;;;;;;;8.10;4.70;;;;;;;0.45;91.80;102041.34;5086997;28;20080;-83
2022/03/08 01:29:35;;;;;;;18.63;4.47;;;;;;;0.41;92.38;102031.50;5079554;28;20021;-83
2022/03/08 01:32:00;;;;;;;8.55;4.65;;;;;;;0.42;91.78;102031.47;5069082;28;20037;-82
2022/03/08 01:34:26;;;;;;;9.38;4.60;;;;;;;0.40;92.12;102025.25;5069536;28;20032;-81
2022/03/08 01:36:51;;;;;;;8.40;4.72;;;;;;;0.39;93.05;102027.97;5068414;28;20021;-81
2022/03/08 01:39:17;;;;;;;10.45;4.03;;;;;;;0.29;93.15;102017.34;5068646;28;20033;-81
2022/03/08 01:41:42;;;;;;;7.93;4.88;;;;;;;0.25;93.76;102012.06;5071478;28;20025;-81
2022/03/08 01:44:09;;;;;;;8.73;4.63;;;;;;;0.22;93.55;102007.59;5067772;28;20024;-81
2022/03/08 01:46:36;;;;;;;7.38;4.63;;;;;;;0.24;94.21;102012.97;5088097;28;20025;-81
2022/03/08 01:49:03;;;;;;;7.65;4.63;;;;;;;0.23;94.01;102003.09;5067058;28;20032;-81
2022/03/08 01:51:29;;;;;;;10.00;5.05;;;;;;;0.20;93.88;102001.38;5064713;28;20040;-81
2022/03/08 01:53:55;;;;;;;6.22;4.60;;;;;;;0.24;93.28;102003.06;5069336;28;20025;-82
2022/03/08 01:56:21;;;;;;;8.02;4.25;;;;;;;0.22;93.77;101987.88;5064283;28;20037;-80
2022/03/08 01:58:47;;;;;;;6.95;4.43;;;;;;;0.15;93.67;101982.59;5066107;28;20431;-79
2022/03/08 02:01:12;;;;;;;6.40;4.85;;;;;;;0.19;94.01;101999.56;5066468;28;20089;-81
2022/03/08 02:03:38;;;;;;;7.18;4.82;;;;;;;0.21;93.10;101997.72;5082459;28;20074;-80
2022/03/08 02:06:03;;;;;;;5.93;4.07;;;;;;;0.15;93.80;101984.41;5037068;28;20112;-81
2022/03/08 02:08:29;;;;;;;7.03;4.50;;;;;;;0.15;93.48;101982.59;5066126;28;20017;-81
2022/03/08 02:10:54;;;;;;;10.25;4.45;;;;;;;0.12;94.32;101982.63;5085847;28;20059;-81
2022/03/08 02:13:21;;;;;;;5.60;4.25;;;;;;;0.07;93.91;101973.75;5071133;28;20048;-80
2022/03/08 02:15:50;;;;;;;7.43;4.38;;;;;;;0.09;94.51;101974.59;5065981;28;20453;-81
2022/03/08 02:18:16;;;;;;;7.60;4.43;;;;;;;0.10;94.10;101971.00;5067507;28;20082;-80
2022/03/08 02:20:44;;;;;;;5.60;4.50;;;;;;;0.12;94.28;101970.97;5066185;28;20063;-82
2022/03/08 02:23:10;;;;;;;6.70;4.35;;;;;;;-0.01;94.49;101946.06;5067138;28;20029;-82
2022/03/08 02:25:35;;;;;;;7.30;4.93;;;;;;;0.09;94.47;101965.66;5068084;28;20479;-81
2022/03/08 02:28:01;;;;;;;6.93;4.80;;;;;;;0.03;94.75;101949.59;5066372;28;20037;-81
2022/03/08 02:30:27;;;;;;;12.32;5.05;;;;;;;-0.04;95.11;101946.13;5066266;28;20091;-81
2022/03/08 02:32:55;;;;;;;7.30;4.88;;;;;;;-0.02;95.31;101958.66;5066755;28;20021;-82
2022/03/08 02:35:25;;;;;;;10.15;5.25;;;;;;;-0.03;94.78;101958.69;5065536;28;20044;-81
2022/03/08 02:37:54;;;;;;;7.15;4.53;;;;;;;-0.01;94.92;101964.91;5065367;28;20040;-81
2022/03/08 02:40:24;;;;;;;8.23;4.82;;;;;;;-0.06;95.69;101959.59;5061427;28;20021;-81
2022/03/08 02:42:50;;;;;;;6.35;4.60;;;;;;;-0.08;96.17;101960.53;5048166;28;20059;-80
2022/03/08 02:45:17;;;;;;;9.30;4.32;;;;;;;-0.14;96.99;101948.09;5072886;28;20098;-79
2022/03/08 02:47:44;;;;;;;7.20;4.55;;;;;;;-0.15;96.58;101946.28;5064904;28;20025;-81
2022/03/08 02:50:12;;;;;;;10.43;5.20;;;;;;;-0.17;97.18;101949.94;5064014;28;20029;-81
2022/03/08 02:52:40;;;;;;;8.15;5.55;;;;;;;-0.22;97.78;101953.59;5084519;28;20035;-80
2022/03/08 02:55:07;;;;;;;7.30;4.75;;;;;;;-0.24;98.07;101951.84;5064337;28;20048;-80
2022/03/08 02:57:33;;;;;;;6.38;4.72;;;;;;;-0.26;97.31;101951.00;5058871;28;20510;-80
2022/03/08 02:59:58;;;;;;;8.85;5.13;;;;;;;-0.29;98.40;101954.63;5063182;28;20055;-80
2022/03/08 03:02:24;;;;;;;12.35;4.90;;;;;;;-0.28;96.82;101953.72;5063779;28;20119;-80
2022/03/08 03:04:49;;;;;;;12.68;5.28;;;;;;;-0.37;97.42;101927.81;5079890;28;20029;-80
2022/03/08 03:07:15;;;;;;;9.60;5.00;;;;;;;-0.28;97.38;101929.50;5064817;28;20036;-81
2022/03/08 03:09:41;;;;;;;13.32;5.45;;;;;;;-0.28;97.60;101936.66;5056525;28;20033;-80
2022/03/08 03:12:07;;;;;;;10.52;4.88;;;;;;;-0.40;97.38;101911.72;5063818;28;20060;-80
2022/03/08 03:14:32;;;;;;;6.82;4.82;;;;;;;-0.35;97.39;101927.81;5065765;28;20026;-80
2022/03/08 03:16:58;;;;;;;12.10;5.63;;;;;;;-0.34;97.86;101928.69;5076650;28;20162;-82
2022/03/08 03:19:24;;;;;;;11.20;5.68;;;;;;;-0.36;97.70;101915.28;5045504;28;20040;-80
2022/03/08 03:21:49;;;;;;;7.45;5.10;;;;;;;-0.33;97.38;101909.81;5086045;28;20035;-81
2022/03/08 03:24:15;;;;;;;8.93;5.00;;;;;;;-0.30;96.84;101907.09;5081625;28;20115;-82
2022/03/08 03:26:40;;;;;;;15.02;5.90;;;;;;;-0.31;97.47;101901.72;5066255;28;20036;-80
2022/03/08 03:29:06;;;;;;;8.60;5.32;;;;;;;-0.32;97.83;101911.59;5058499;28;20124;-79
2022/03/08 03:31:31;;;;;;;9.60;4.88;;;;;;;-0.40;99.24;101909.03;5085098;28;20699;-79
2022/03/08 03:33:56;;;;;;;10.32;5.72;;;;;;;-0.47;99.21;101904.69;5090426;28;20060;-80
2022/03/08 03:36:22;;;;;;;10.60;5.88;;;;;;;-0.48;98.74;101897.50;5066181;28;20029;-80
2022/03/08 03:38:47;;;;;;;7.95;4.68;;;;;;;-0.42;98.66;101899.22;5065100;28;20028;-81
2022/03/08 03:41:13;;;;;;;10.02;5.38;;;;;;;-0.41;98.89;101903.69;5053178;28;20041;-81
2022/03/08 03:43:38;;;;;;;7.85;5.43;;;;;;;-0.45;99.75;101905.53;5040748;28;20057;-81
2022/03/08 03:46:05;;;;;;;10.10;5.25;;;;;;;-0.50;98.73;101903.84;5080533;28;20049;-81
2022/03/08 03:48:34;;;;;;;8.45;5.53;;;;;;;-0.42;99.23;101915.38;5061850;28;20037;-80
2022/03/08 03:51:00;;;;;;;7.43;4.43;;;;;;;-0.43;99.45;101909.09;5065654;28;20029;-81
2022/03/08 03:53:29;;;;;;;8.35;5.05;;;;;;;-0.50;98.53;101901.16;5060604;28;20017;-80
2022/03/08 03:55:55;;;;;;;8.95;5.78;;;;;;;-0.37;98.82;101910.81;5053551;28;20075;-81
2022/03/08 03:58:21;;;;;;;7.97;5.20;;;;;;;-0.33;97.97;101907.13;5063971;28;20033;-80
2022/03/08 04:00:46;;;;;;;11.52;5.25;;;;;;;-0.31;97.68;101894.56;5050111;28;20045;-80
2022/03/08 04:03:13;;;;;;;8.82;5.07;;;;;;;-0.32;97.75;101898.16;5063254;28;20033;-81
2022/03/08 04:05:39;;;;;;;6.97;4.78;;;;;;;-0.28;97.42;101888.22;5064028;28;20032;-80
2022/03/08 04:08:04;;;;;;;11.02;5.57;;;;;;;-0.28;97.19;101890.91;5070735;28;20035;-80
2022/03/08 04:10:30;;;;;;;8.90;5.55;;;;;;;-0.33;97.70;101906.25;5086032;28;20482;-80
2022/03/08 04:12:56;;;;;;;8.10;5.35;;;;;;;-0.32;98.08;101906.22;5077561;28;20369;-79
2022/03/08 04:15:21;;;;;;;6.53;4.97;;;;;;;-0.36;98.17;101901.81;5064633;28;20041;-81
2022/03/08 04:17:47;;;;;;;8.70;5.20;;;;;;;-0.33;98.10;101907.13;5068537;28;20041;-81
2022/03/08 04:20:12;;;;;;;8.00;4.82;;;;;;;-0.33;98.40;101899.06;5060373;28;20026;-81
2022/03/08 04:22:39;;;;;;;7.57;4.97;;;;;;;-0.35;97.81;101897.31;5067132;28;20044;-81
2022/03/08 04:25:06;;;;;;;8.20;5.28;;;;;;;-0.34;97.40;101889.22;5070941;28;20062;-81
2022/03/08 04:27:32;;;;;;;7.53;5.25;;;;;;;-0.30;97.68;101887.38;5058596;28;20116;-81
2022/03/08 04:30:00;;;;;;;7.07;5.00;;;;;;;-0.35;97.35;101876.69;5072087;28;20048;-81
2022/03/08 04:32:26;;;;;;;12.07;6.20;;;;;;;-0.42;98.04;101873.22;5046520;28;20029;-80
2022/03/08 04:34:51;;;;;;;10.38;5.57;;;;;;;-0.44;97.54;101871.47;5057034;28;20030;-81
2022/03/08 04:37:17;;;;;;;11.68;5.53;;;;;;;-0.43;98.04;101876.81;5072439;28;20020;-81
2022/03/08 04:39:43;;;;;;;6.68;4.63;;;;;;;-0.51;98.08;101867.97;5071624;28;20029;-82
2022/03/08 04:42:08;;;;;;;13.27;4.70;;;;;;;-0.46;98.66;101884.94;5069806;28;20036;-80
2022/03/08 04:44:34;;;;;;;7.68;4.70;;;;;;;-0.43;98.85;101884.00;5064279;28;20048;-80
2022/03/08 04:46:59;;;;;;;9.32;5.03;;;;;;;-0.44;99.20;101884.94;5063576;28;20039;-82
2022/03/08 04:49:25;;;;;;;16.23;5.78;;;;;;;-0.46;99.18;101886.72;5064003;28;20033;-80
2022/03/08 04:51:51;;;;;;;9.82;5.30;;;;;;;-0.65;99.55;101857.47;5053131;28;20101;-81
2022/03/08 04:54:16;;;;;;;9.20;5.45;;;;;;;-0.64;99.14;101861.03;5063472;28;20048;-81
2022/03/08 04:56:42;;;;;;;8.45;5.15;;;;;;;-0.53;99.56;101874.31;5057020;28;20049;-80
2022/03/08 04:59:08;;;;;;;10.65;5.35;;;;;;;-0.56;100.00;101880.63;5063506;28;20049;-81
2022/03/08 05:01:33;;;;;;;8.40;4.95;;;;;;;-0.56;100.00;101894.97;5076511;28;20404;-81
2022/03/08 05:03:59;;;;;;;12.15;6.13;;;;;;;-0.61;100.00;101880.72;5064240;28;20037;-81
2022/03/08 05:06:26;;;;;;;11.05;5.70;;;;;;;-0.56;100.00;101886.91;5063009;28;20106;-83
2022/03/08 05:08:53;;;;;;;9.07;5.28;;;;;;;-0.64;100.00;101879.84;5065343;28;20029;-81
2022/03/08 05:11:18;;;;;;;12.18;6.13;;;;;;;-0.63;100.00;101884.31;5063338;28;20025;-81
2022/03/08 05:13:45;;;;;;;8.18;5.57;;;;;;;-0.67;100.00;101878.13;5061098;28;20032;-81
2022/03/08 05:16:10;;;;;;;10.57;5.45;;;;;;;-0.69;100.00;101874.53;5062781;28;20029;-81
2022/03/08 05:18:36;;;;;;;13.70;5.65;;;;;;;-0.66;100.00;101881.69;5045875;28;20496;-81
2022/03/08 05:21:01;;;;;;;11.00;5.22;;;;;;;-0.65;100.00;101887.03;5064707;28;20041;-81
2022/03/08 05:23:27;;;;;;;9.02;5.68;;;;;;;-0.69;100.00;101887.09;5073793;28;20097;-80
2022/03/08 05:25:53;;;;;;;9.10;5.55;;;;;;;-0.75;100.00;101877.34;5060975;28;20041;-82
2022/03/08 05:28:18;;;;;;;9.10;5.32;;;;;;;-0.77;100.00;101880.06;5083323;28;20028;-81
2022/03/08 05:30:45;;;;;;;11.73;5.85;;;;;;;-0.78;100.00;101874.69;5066113;28;20056;-81
2022/03/08 05:33:11;;;;;;;7.32;5.20;;;;;;;-0.84;100.00;101872.09;5066766;28;20063;-81
2022/03/08 05:35:37;;;;;;;10.02;5.70;;;;;;;-0.87;100.00;101865.00;5065733;28;20108;-81
2022/03/08 05:38:03;;;;;;;12.82;5.70;;;;;;;-0.83;100.00;101881.97;5078427;28;20092;-81
2022/03/08 05:40:29;;;;;;;12.13;5.40;;;;;;;-0.84;100.00;101872.09;5063174;28;20048;-81
2022/03/08 05:42:54;;;;;;;9.65;5.43;;;;;;;-0.80;100.00;101881.91;5075176;28;20041;-82
2022/03/08 05:45:20;;;;;;;8.90;5.90;;;;;;;-0.90;100.00;101883.84;5071475;28;20028;-82
2022/03/08 05:47:47;;;;;;;14.25;6.40;;;;;;;-0.86;100.00;101874.81;5066887;28;20032;-82
2022/03/08 05:50:13;;;;;;;8.38;6.10;;;;;;;-0.97;100.00;101869.63;5064730;28;20033;-83
2022/03/08 05:52:39;;;;;;;10.50;6.25;;;;;;;-0.92;100.00;101882.97;5063751;28;20048;-81
2022/03/08 05:55:06;;;;;;;9.88;6.20;;;;;;;-0.96;100.00;101871.38;5063365;28;20472;-81
2022/03/08 05:57:31;;;;;;;10.95;6.45;;;;;;;-0.85;100.00;101875.69;5086122;28;20098;-80
2022/03/08 05:59:58;;;;;;;12.38;7.15;;;;;;;-0.91;100.00;101881.19;5057017;28;20110;-82
2022/03/08 06:02:23;;;;;;;15.15;5.78;;;;;;;-0.98;100.00;101881.25;5086557;28;20275;-82
2022/03/08 06:04:49;;;;;;;16.33;6.28;;;;;;;-0.96;100.00;101874.06;5051249;28;20025;-82
2022/03/08 06:07:14;;;;;;;9.40;6.47;;;;;;;-0.90;100.00;101877.56;5066538;28;20104;-81
2022/03/08 06:09:40;;;;;;;10.98;6.18;;;;;;;-1.11;100.00;101861.75;5051960;28;20117;-80
2022/03/08 06:12:06;;;;;;;11.05;5.97;;;;;;;-0.96;100.00;101878.56;5054352;28;20069;-81
2022/03/08 06:14:32;;;;;;;14.63;7.05;;;;;;;-0.93;100.00;101891.97;5069346;28;20116;-81
2022/03/08 06:16:57;;;;;;;10.85;6.35;;;;;;;-0.95;100.00;101891.09;5081429;28;20045;-80
2022/03/08 06:19:24;;;;;;;11.48;6.18;;;;;;;-0.96;100.00;101887.50;5045978;28;20061;-81
2022/03/08 06:21:52;;;;;;;9.60;6.30;;;;;;;-0.89;100.00;101895.47;5081292;28;20393;-80
2022/03/08 06:24:17;;;;;;;11.48;6.22;;;;;;;-0.91;100.00;101894.63;5080396;28;20048;-80
2022/03/08 06:26:43;;;;;;;10.05;6.72;;;;;;;-0.87;100.00;101894.56;5065866;28;20075;-79
2022/03/08 06:29:09;;;;;;;9.85;6.35;;;;;;;-0.93;100.00;101878.50;5064516;28;20165;-79
2022/03/08 06:31:35;;;;;;;16.60;7.00;;;;;;;-0.82;100.00;101892.69;5078900;28;20056;-79
2022/03/08 06:34:01;;;;;;;13.00;6.85;;;;;;;-0.77;100.00;101892.59;5061040;28;20483;-81
2022/03/08 06:36:26;;;;;;;13.23;7.05;;;;;;;-0.75;100.00;101890.78;5062871;28;20025;-81
2022/03/08 06:38:52;;;;;;;10.45;6.90;;;;;;;-0.66;100.00;101896.00;5063988;28;20082;-80
2022/03/08 06:41:19;;;;;;;9.15;6.38;;;;;;;-0.54;100.00;101894.03;5062288;28;20510;-80
2022/03/08 06:43:44;;;;;;;9.32;7.25;;;;;;;-0.44;100.00;101893.88;5064181;28;20435;-81
2022/03/08 06:46:10;;;;;;;12.93;6.70;;;;;;;-0.44;100.00;101880.44;5061385;28;20029;-82
2022/03/08 06:48:36;;;;;;;15.15;7.00;;;;;;;-0.32;100.00;101879.31;5057888;28;20021;-81
2022/03/08 06:51:02;;;;;;;10.70;5.75;;;;;;;-0.24;100.00;101872.00;5060729;28;20029;-84
2022/03/08 06:53:28;;;;;;;9.77;6.50;;;;;;;-0.06;100.00;101872.59;5044681;28;20041;-82
2022/03/08 06:55:53;;;;;;;12.38;6.03;;;;;;;0.14;100.00;101865.00;5062476;28;20039;-82
2022/03/08 06:58:20;;;;;;;10.00;5.72;;;;;;;0.40;98.64;101879.78;5064616;28;20043;-82
2022/03/08 07:00:45;;;;;;;12.68;7.07;;;;;;;0.48;98.25;101855.38;5062841;28;20043;-80
2022/03/08 07:03:11;;;;;;;10.20;6.22;;;;;;;0.68;96.54;101871.13;5047652;28;20117;-81
2022/03/08 07:05:38;;;;;;;10.75;6.38;;;;;;;0.95;94.80;101876.81;5080195;28;20017;-81
2022/03/08 07:08:04;;;;;;;10.55;5.88;;;;;;;1.07;94.75;101881.94;5042287;28;20036;-80
2022/03/08 07:10:30;;;;;;;9.65;5.60;;;;;;;1.33;93.14;101881.31;5061248;28;20043;-81
2022/03/08 07:12:56;;;;;;;10.32;6.03;;;;;;;1.51;90.87;101882.69;5045448;28;20037;-81
2022/03/08 07:15:22;;;;;;;8.68;6.40;;;;;;;1.47;89.75;101875.59;5032804;28;20501;-80
2022/03/08 07:17:48;;;;;;;14.18;6.60;;;;;;;1.69;88.72;101878.66;5030705;28;20032;-80
2022/03/08 07:20:14;;;;;;;12.40;5.88;;;;;;;1.68;87.77;101881.38;5049893;28;20048;-80
2022/03/08 07:22:39;;;;;;;10.50;6.18;;;;;;;2.05;86.46;101881.31;5062297;28;20037;-79
2022/03/08 07:25:06;;;;;;;8.77;5.28;;;;;;;2.26;84.76;101884.31;5055354;28;20060;-83
2022/03/08 07:27:35;;;;;;;9.68;5.68;;;;;;;2.26;83.45;101869.00;5057567;28;20047;-83
2022/03/08 07:30:03;;;;;;;9.63;5.35;;;;;;;2.19;82.95;101873.69;5061421;28;20053;-84
2022/03/08 07:32:28;;;;;;;13.18;5.97;;;;;;;2.23;82.53;101879.91;5029124;28;20041;-83
2022/03/08 07:34:54;;;;;;;11.13;5.00;;;;;;;2.23;82.83;101860.09;5041636;28;20029;-84
2022/03/08 07:37:19;;;;;;;8.27;5.90;;;;;;;2.36;82.25;101886.75;5061106;28;20055;-84
2022/03/08 07:39:45;;;;;;;7.38;4.90;;;;;;;2.50;81.25;101891.75;5068949;28;20044;-83
2022/03/08 07:42:11;;;;;;;12.38;6.03;;;;;;;2.61;82.10;101899.56;5061355;28;20039;-83
2022/03/08 07:44:38;;;;;;;8.50;5.30;;;;;;;2.82;81.79;101898.03;5060210;28;20142;-82
2022/03/08 07:47:04;;;;;;;8.35;5.07;;;;;;;3.02;80.00;101905.53;5042983;28;20038;-82
2022/03/08 07:49:30;;;;;;;7.93;5.32;;;;;;;2.91;78.80;101892.34;5051742;28;20049;-81
2022/03/08 07:51:55;;;;;;;8.00;5.22;;;;;;;3.17;78.72;101895.19;5057690;28;20064;-82
2022/03/08 07:54:21;;;;;;;11.48;5.85;;;;;;;3.17;76.85;101896.06;5049812;28;20041;-82
2022/03/08 07:57:01;;;;;;;9.98;5.00;;;;;;;3.19;78.03;101891.47;5036983;28;20013;-82
2022/03/08 07:59:34;;;;;;;10.90;5.57;;;;;;;3.45;76.16;101887.06;5031268;28;20061;-78
2022/03/08 08:02:00;;;;;;;6.55;4.63;;;;;;;3.70;74.70;101883.53;5051794;28;20592;-78
2022/03/08 08:04:25;;;;;;;8.38;4.43;;;;;;;3.82;71.49;101881.28;5044724;28;20128;-78
2022/03/08 08:06:51;;;;;;;6.78;4.65;;;;;;;3.73;71.76;101900.56;5039443;28;20029;-80
2022/03/08 08:09:17;;;;;;;17.35;5.70;;;;;;;3.91;73.13;101887.34;5072823;28;20049;-80
2022/03/08 08:11:43;;;;;;;6.03;4.75;;;;;;;4.11;72.24;101895.63;5056615;28;20099;-81
2022/03/08 08:14:09;;;;;;;13.15;5.25;;;;;;;4.34;70.39;101893.94;5057949;28;20060;-79
2022/03/08 08:16:34;;;;;;;10.70;4.90;;;;;;;4.32;69.20;101893.09;5039514;28;20120;-81
2022/03/08 08:19:00;;;;;;;9.55;4.53;;;;;;;4.30;68.76;101885.03;5056707;28;20499;-79
2022/03/08 08:21:26;;;;;;;6.13;4.40;;;;;;;4.56;68.41;101889.50;5056493;28;20033;-79
2022/03/08 08:23:51;;;;;;;6.55;4.18;;;;;;;4.35;67.56;101888.47;5054462;28;20029;-79
2022/03/08 08:26:17;;;;;;;6.50;4.28;;;;;;;4.54;67.58;101885.97;5056668;28;20029;-79
2022/03/08 08:28:42;;;;;;;10.57;4.30;;;;;;;4.55;66.79;101885.00;5058082;28;20075;-80
2022/03/08 08:31:08;;;;;;;8.02;4.72;;;;;;;4.97;67.07;101876.16;5057817;28;20037;-79
2022/03/08 08:33:35;;;;;;;6.70;4.50;;;;;;;5.05;66.59;101888.53;5040286;28;20040;-80
2022/03/08 08:36:00;;;;;;;8.23;4.82;;;;;;;5.31;64.21;101880.25;5056310;28;20056;-78
2022/03/08 08:38:26;;;;;;;7.85;4.65;;;;;;;5.35;64.94;101883.72;5057130;28;20435;-77
2022/03/08 08:40:51;;;;;;;10.88;4.38;;;;;;;5.41;62.82;101869.00;5057066;28;20540;-79
2022/03/08 08:43:17;;;;;;;10.48;5.22;;;;;;;5.60;63.67;101882.72;5057549;28;20047;-79
2022/03/08 08:45:42;;;;;;;13.38;4.50;;;;;;;6.02;62.89;101892.75;5056625;28;20515;-80
2022/03/08 08:48:08;;;;;;;9.07;4.82;;;;;;;5.88;61.80;101883.31;5052793;28;20037;-79
2022/03/08 08:50:35;;;;;;;9.23;5.03;;;;;;;5.92;62.06;101881.38;5036543;28;20093;-80
2022/03/08 08:53:01;;;;;;;13.32;5.43;;;;;;;5.99;60.88;101892.88;5050742;28;20033;-81
2022/03/08 08:55:26;;;;;;;8.15;4.82;;;;;;;6.32;60.48;101879.63;5054816;28;20100;-79
2022/03/08 08:57:52;;;;;;;16.98;5.50;;;;;;;6.06;60.14;101883.50;5056225;28;20074;-79
2022/03/08 09:00:18;;;;;;;6.93;4.82;;;;;;;6.27;60.71;101883.53;5057531;28;20124;-79
2022/03/08 09:02:45;;;;;;;7.40;4.95;;;;;;;6.42;59.66;101878.25;5062212;28;20083;-79
2022/03/08 09:05:13;;;;;;;10.10;4.82;;;;;;;6.65;59.46;101860.00;5063858;28;20044;-80
2022/03/08 09:07:39;;;;;;;6.07;4.90;;;;;;;6.83;58.29;101854.66;5060869;28;20040;-79
2022/03/08 09:10:07;;;;;;;9.43;5.00;;;;;;;7.27;58.25;101876.16;5060253;28;20517;-79
2022/03/08 09:12:35;;;;;;;7.00;4.72;;;;;;;7.07;56.07;101869.81;5052021;28;20538;-78
2022/03/08 09:15:02;;;;;;;7.65;4.95;;;;;;;7.08;55.85;101862.53;5073141;28;20043;-80
2022/03/08 09:17:29;;;;;;;10.45;4.75;;;;;;;7.22;54.63;101867.31;5052971;28;20049;-80
2022/03/08 09:19:54;;;;;;;9.65;5.07;;;;;;;7.21;55.54;101852.78;5037022;28;20049;-78
2022/03/08 09:22:20;;;;;;;8.15;4.85;;;;;;;7.05;54.89;101860.84;5059475;28;20052;-80
2022/03/08 09:24:46;;;;;;;9.57;4.88;;;;;;;7.76;54.70;101854.63;5059241;28;20127;-80
2022/03/08 09:27:12;;;;;;;10.75;5.47;;;;;;;7.54;54.03;101846.63;5076893;28;20048;-80
2022/03/08 09:29:37;;;;;;;8.07;4.70;;;;;;;7.48;53.70;101852.41;5071501;28;20032;-79
2022/03/08 09:32:03;;;;;;;9.20;5.28;;;;;;;7.74;55.65;101848.38;5043127;28;20649;-80
2022/03/08 09:34:29;;;;;;;9.77;5.57;;;;;;;8.01;53.29;101837.84;5060341;28;20420;-78
2022/03/08 09:36:55;;;;;;;8.57;4.97;;;;;;;7.90;52.91;101841.16;5060014;28;20029;-79
2022/03/08 09:39:21;;;;;;;8.85;5.20;;;;;;;7.57;52.95;101846.47;5059705;28;20029;-79
2022/03/08 09:41:51;;;;;;;16.30;5.50;;;;;;;8.13;52.09;101841.75;5060685;28;20036;-81
2022/03/08 09:44:17;;;;;;;7.22;5.00;;;;;;;8.49;52.92;101846.25;5055526;28;20480;-78
2022/03/08 09:46:43;;;;;;;10.27;5.57;;;;;;;7.98;51.71;101831.69;5077136;28;20045;-80
2022/03/08 09:49:08;;;;;;;11.25;4.75;;;;;;;7.93;52.34;101833.78;5078792;28;20116;-80
2022/03/08 09:51:40;;;;;;;8.32;5.15;;;;;;;8.46;51.94;101835.50;5057344;28;20056;-80
2022/03/08 09:54:05;;;;;;;14.20;6.13;;;;;;;8.13;51.78;101829.97;5041971;28;20036;-79
2022/03/08 09:56:32;;;;;;;10.25;5.05;;;;;;;8.37;51.17;101831.38;5053408;28;20036;-79
2022/03/08 09:58:59;;;;;;;11.07;5.40;;;;;;;8.53;50.55;101819.69;5059461;28;20495;-80
2022/03/08 10:01:25;;;;;;;12.80;5.05;;;;;;;8.41;49.53;101823.91;5072429;28;20049;-81
2022/03/08 10:03:51;;;;;;;8.15;4.82;;;;;;;8.53;50.86;101819.69;5056282;28;20041;-80
2022/03/08 10:06:16;;;;;;;6.68;4.53;;;;;;;8.65;48.92;101810.81;5057717;28;20123;-80
2022/03/08 10:08:42;;;;;;;8.65;4.85;;;;;;;8.48;50.41;101825.41;5050752;28;20029;-79
2022/03/08 10:11:11;;;;;;;13.65;4.80;;;;;;;8.26;48.78;101821.06;5064183;28;20041;-80
2022/03/08 10:13:42;;;;;;;9.20;4.68;;;;;;;8.76;50.66;101816.56;5070636;28;20431;-81
2022/03/08 10:16:26;;;;;;;9.00;4.18;;;;;;;8.39;48.72;101821.28;5048744;28;20038;-81
2022/03/08 10:18:57;;;;;;;6.63;4.72;;;;;;;8.82;48.23;101812.59;5053879;28;20024;-80
2022/03/08 10:21:43;;;;;;;7.10;4.10;;;;;;;9.13;47.62;101799.91;5056943;28;20044;-81
2022/03/08 10:24:24;;;;;;;8.80;4.07;;;;;;;9.05;45.92;101796.75;5057435;28;20029;-79
2022/03/08 10:27:06;;;;;;;29.23;3.97;;;;;;;8.76;44.82;101804.75;5057406;28;20033;-79
2022/03/08 10:29:38;;;;;;;15.07;3.72;;;;;;;8.47;45.45;101804.53;5048489;28;20109;-80
2022/03/08 10:32:19;;;;;;;15.32;4.35;;;;;;;8.88;45.05;101790.38;5060400;28;20052;-80
2022/03/08 10:34:47;;;;;;;9.88;3.53;;;;;;;8.73;45.16;101788.53;5028028;28;20045;-80
2022/03/08 10:37:20;;;;;;;11.77;4.30;;;;;;;8.77;43.97;101806.50;5059621;28;20493;-83
2022/03/08 10:39:51;;;;;;;18.83;4.17;;;;;;;8.68;42.54;101797.00;5077335;28;20045;-81
2022/03/08 10:42:28;;;;;;;20.73;4.80;;;;;;;8.75;44.43;101795.66;5071961;28;20033;-81
2022/03/08 10:45:11;;;;;;;15.82;3.83;;;;;;;8.60;43.52;101794.69;5045558;28;20108;-81
2022/03/08 10:47:42;;;;;;;10.60;3.55;;;;;;;9.19;42.67;101769.50;5049813;28;20025;-80
2022/03/08 10:50:13;;;;;;;13.05;2.67;;;;;;;9.10;41.92;101784.59;5058993;28;20029;-81
2022/03/08 10:52:41;;;;;;;5.35;3.10;;;;;;;8.91;41.69;101778.44;5038355;28;20120;-81
2022/03/08 10:55:21;;;;;;;8.32;3.80;;;;;;;8.96;42.98;101776.31;5057064;28;20064;-80
2022/03/08 10:58:01;;;;;;;19.60;3.72;;;;;;;8.73;42.13;101778.50;5056224;28;20040;-81
2022/03/08 11:00:28;;;;;;;19.27;3.30;;;;;;;8.85;41.71;101763.25;5039434;28;20553;-79
2022/03/08 11:02:58;;;;;;;13.20;3.47;;;;;;;8.96;42.31;101762.66;5052696;28;21531;-80
2022/03/08 11:05:30;;;;;;;8.07;3.42;;;;;;;8.91;42.26;101765.63;5050167;28;20032;-79
2022/03/08 11:07:57;;;;;;;12.65;3.80;;;;;;;9.04;41.93;101770.41;5022624;28;20392;-80
2022/03/08 11:10:23;;;;;;;11.32;3.20;;;;;;;9.06;42.01;101769.34;5073034;28;20067;-81
2022/03/08 11:12:49;;;;;;;5.55;3.08;;;;;;;8.62;41.75;101765.47;5054717;28;20056;-80
2022/03/08 11:15:16;;;;;;;10.27;3.42;;;;;;;9.27;41.35;101759.00;5056304;28;20052;-80
2022/03/08 11:17:44;;;;;;;10.10;3.40;;;;;;;8.97;42.96;101754.38;5041249;28;20115;-80
2022/03/08 11:20:11;;;;;;;9.77;3.92;;;;;;;9.55;42.47;101763.69;5039715;28;20117;-80
2022/03/08 11:22:38;;;;;;;5.20;3.10;;;;;;;9.16;41.10;101740.50;5057135;28;20033;-82